sensor_id;sensor_type;location;lat;lon;timestamp;pressure;altitude;pressure_sealevel;temperature;humidity
35307;BME280;21420;52.196;21.416;2022-09-27T00:01:17;99019.83;;;11.43;59.11
35307;BME280;21420;52.196;21.416;2022-09-27T00:03:43;99016.92;;;11.45;59.12
35307;BME280;21420;52.196;21.416;2022-09-27T00:06:24;99018.11;;;11.48;59.16
35307;BME280;21420;52.196;21.416;2022-09-27T00:08:51;99009.75;;;11.51;59.24
35307;BME280;21420;52.196;21.416;2022-09-27T00:11:34;99012.88;;;11.53;59.26
35307;BME280;21420;52.196;21.416;2022-09-27T00:13:58;99008.99;;;11.54;59.29
35307;BME280;21420;52.196;21.416;2022-09-27T00:16:27;99009.58;;;11.53;59.32
35307;BME280;21420;52.196;21.416;2022-09-27T00:19:03;99004.88;;;11.54;59.32
35307;BME280;21420;52.196;21.416;2022-09-27T00:21:31;98996.05;;;11.51;59.34
35307;BME280;21420;52.196;21.416;2022-09-27T00:23:58;98995.80;;;11.46;59.20
35307;BME280;21420;52.196;21.416;2022-09-27T00:26:26;98998.25;;;11.38;59.11
35307;BME280;21420;52.196;21.416;2022-09-27T00:28:53;98996.75;;;11.27;59.06
35307;BME280;21420;52.196;21.416;2022-09-27T00:31:27;98988.81;;;11.18;59.17
35307;BME280;21420;52.196;21.416;2022-09-27T00:33:56;98985.41;;;11.12;59.25
35307;BME280;21420;52.196;21.416;2022-09-27T00:36:23;98988.31;;;11.09;59.38
35307;BME280;21420;52.196;21.416;2022-09-27T00:38:51;98983.06;;;11.10;59.65
35307;BME280;21420;52.196;21.416;2022-09-27T00:41:23;98976.60;;;11.12;59.66
35307;BME280;21420;52.196;21.416;2022-09-27T00:43:54;98982.30;;;11.13;59.75
35307;BME280;21420;52.196;21.416;2022-09-27T00:46:40;98979.03;;;11.17;59.91
35307;BME280;21420;52.196;21.416;2022-09-27T00:49:25;98979.28;;;11.22;60.02
35307;BME280;21420;52.196;21.416;2022-09-27T00:52:18;98975.59;;;11.24;59.96
35307;BME280;21420;52.196;21.416;2022-09-27T00:54:49;98981.02;;;11.20;59.94
35307;BME280;21420;52.196;21.416;2022-09-27T00:57:18;98976.88;;;11.17;59.92
35307;BME280;21420;52.196;21.416;2022-09-27T00:59:49;98976.06;;;11.16;60.08
35307;BME280;21420;52.196;21.416;2022-09-27T01:02:24;98970.93;;;11.11;60.04
35307;BME280;21420;52.196;21.416;2022-09-27T01:04:50;98970.31;;;11.08;60.13
35307;BME280;21420;52.196;21.416;2022-09-27T01:07:18;98972.41;;;11.05;60.14
35307;BME280;21420;52.196;21.416;2022-09-27T01:09:44;98965.79;;;11.06;60.31
35307;BME280;21420;52.196;21.416;2022-09-27T01:32:51;98951.83;;;11.35;61.06
35307;BME280;21420;52.196;21.416;2022-09-27T01:35:35;98947.13;;;11.36;61.03
35307;BME280;21420;52.196;21.416;2022-09-27T01:38:33;98950.63;;;11.33;60.86
35307;BME280;21420;52.196;21.416;2022-09-27T01:41:33;98949.16;;;11.25;60.85
35307;BME280;21420;52.196;21.416;2022-09-27T01:44:24;98947.97;;;11.23;60.92
35307;BME280;21420;52.196;21.416;2022-09-27T01:47:02;98942.88;;;11.21;60.99
35307;BME280;21420;52.196;21.416;2022-09-27T01:49:46;98939.75;;;11.23;61.11
35307;BME280;21420;52.196;21.416;2022-09-27T01:52:18;98934.73;;;11.29;61.22
35307;BME280;21420;52.196;21.416;2022-09-27T01:54:50;98933.53;;;11.26;61.13
35307;BME280;21420;52.196;21.416;2022-09-27T01:57:30;98937.47;;;11.29;61.29
35307;BME280;21420;52.196;21.416;2022-09-27T02:00:04;98939.26;;;11.31;61.27
35307;BME280;21420;52.196;21.416;2022-09-27T02:02:50;98938.30;;;11.33;61.35
35307;BME280;21420;52.196;21.416;2022-09-27T02:05:57;98938.08;;;11.32;61.29
35307;BME280;21420;52.196;21.416;2022-09-27T02:11:06;98947.66;;;11.28;61.23
35307;BME280;21420;52.196;21.416;2022-09-27T02:13:55;98940.92;;;11.22;61.29
35307;BME280;21420;52.196;21.416;2022-09-27T02:19:23;98939.50;;;11.18;61.40
35307;BME280;21420;52.196;21.416;2022-09-27T02:24:55;98926.46;;;11.25;61.66
35307;BME280;21420;52.196;21.416;2022-09-27T02:27:35;98932.77;;;11.29;61.76
35307;BME280;21420;52.196;21.416;2022-09-27T02:30:07;98920.25;;;11.28;61.76
35307;BME280;21420;52.196;21.416;2022-09-27T02:32:40;98923.01;;;11.32;61.89
35307;BME280;21420;52.196;21.416;2022-09-27T02:35:14;98928.91;;;11.34;61.86
35307;BME280;21420;52.196;21.416;2022-09-27T02:37:40;98925.80;;;11.35;61.94
35307;BME280;21420;52.196;21.416;2022-09-27T02:40:07;98930.10;;;11.36;61.90
35307;BME280;21420;52.196;21.416;2022-09-27T02:42:35;98922.52;;;11.39;62.06
35307;BME280;21420;52.196;21.416;2022-09-27T02:45:04;98919.42;;;11.44;62.10
35307;BME280;21420;52.196;21.416;2022-09-27T03:00:08;98915.55;;;11.29;61.96
35307;BME280;21420;52.196;21.416;2022-09-27T03:05:43;98908.39;;;11.17;61.97
35307;BME280;21420;52.196;21.416;2022-09-27T03:08:15;98898.14;;;11.10;62.05
35307;BME280;21420;52.196;21.416;2022-09-27T03:10:42;98902.56;;;11.05;62.03
35307;BME280;21420;52.196;21.416;2022-09-27T03:13:09;98905.65;;;11.00;62.10
35307;BME280;21420;52.196;21.416;2022-09-27T03:15:36;98904.81;;;10.96;62.22
35307;BME280;21420;52.196;21.416;2022-09-27T03:18:05;98903.67;;;10.97;62.36
35307;BME280;21420;52.196;21.416;2022-09-27T03:20:41;98901.48;;;10.96;62.42
35307;BME280;21420;52.196;21.416;2022-09-27T03:23:12;98897.97;;;10.96;62.42
35307;BME280;21420;52.196;21.416;2022-09-27T03:25:39;98892.89;;;10.94;62.57
35307;BME280;21420;52.196;21.416;2022-09-27T03:28:07;98897.02;;;10.98;62.59
35307;BME280;21420;52.196;21.416;2022-09-27T03:30:34;98897.19;;;10.95;62.65
35307;BME280;21420;52.196;21.416;2022-09-27T03:33:00;98892.91;;;10.98;62.83
35307;BME280;21420;52.196;21.416;2022-09-27T03:35:40;98888.87;;;11.05;62.95
35307;BME280;21420;52.196;21.416;2022-09-27T03:38:08;98886.20;;;11.12;63.06
35307;BME280;21420;52.196;21.416;2022-09-27T03:40:35;98889.82;;;11.20;63.07
35307;BME280;21420;52.196;21.416;2022-09-27T03:43:02;98883.92;;;11.18;62.96
35307;BME280;21420;52.196;21.416;2022-09-27T03:45:29;98892.09;;;11.14;62.85
35307;BME280;21420;52.196;21.416;2022-09-27T03:47:56;98900.07;;;11.10;62.80
35307;BME280;21420;52.196;21.416;2022-09-27T03:50:22;98892.42;;;11.06;62.82
35307;BME280;21420;52.196;21.416;2022-09-27T03:52:50;98889.41;;;11.01;62.89
35307;BME280;21420;52.196;21.416;2022-09-27T03:55:17;98894.64;;;10.96;62.88
35307;BME280;21420;52.196;21.416;2022-09-27T03:57:44;98886.03;;;10.94;63.05
35307;BME280;21420;52.196;21.416;2022-09-27T04:00:13;98880.56;;;10.94;63.09
35307;BME280;21420;52.196;21.416;2022-09-27T04:02:40;98874.08;;;10.93;63.07
35307;BME280;21420;52.196;21.416;2022-09-27T04:05:27;98869.97;;;10.93;63.19
35307;BME280;21420;52.196;21.416;2022-09-27T04:07:56;98865.81;;;10.89;63.16
35307;BME280;21420;52.196;21.416;2022-09-27T04:10:22;98860.73;;;10.88;63.29
35307;BME280;21420;52.196;21.416;2022-09-27T04:12:49;98867.35;;;10.87;63.36
35307;BME280;21420;52.196;21.416;2022-09-27T04:15:16;98865.79;;;10.86;63.38
35307;BME280;21420;52.196;21.416;2022-09-27T04:17:49;98860.09;;;10.84;63.48
35307;BME280;21420;52.196;21.416;2022-09-27T04:20:34;98862.83;;;10.84;63.55
35307;BME280;21420;52.196;21.416;2022-09-27T04:23:03;98859.92;;;10.87;63.69
35307;BME280;21420;52.196;21.416;2022-09-27T04:25:30;98859.55;;;10.89;63.66
35307;BME280;21420;52.196;21.416;2022-09-27T04:28:00;98854.49;;;10.91;63.82
35307;BME280;21420;52.196;21.416;2022-09-27T04:30:28;98858.37;;;10.90;63.73
35307;BME280;21420;52.196;21.416;2022-09-27T04:33:10;98850.34;;;10.87;63.74
35307;BME280;21420;52.196;21.416;2022-09-27T04:35:55;98850.92;;;10.87;63.76
35307;BME280;21420;52.196;21.416;2022-09-27T04:38:42;98845.67;;;10.88;63.85
35307;BME280;21420;52.196;21.416;2022-09-27T04:41:08;98843.71;;;10.88;63.94
35307;BME280;21420;52.196;21.416;2022-09-27T04:43:37;98842.53;;;10.89;63.94
35307;BME280;21420;52.196;21.416;2022-09-27T04:46:03;98847.59;;;10.87;63.95
35307;BME280;21420;52.196;21.416;2022-09-27T04:48:29;98841.34;;;10.87;63.90
35307;BME280;21420;52.196;21.416;2022-09-27T04:50:58;98843.30;;;10.86;64.01
35307;BME280;21420;52.196;21.416;2022-09-27T04:53:27;98845.67;;;10.88;64.06
35307;BME280;21420;52.196;21.416;2022-09-27T04:55:55;98844.50;;;10.89;64.12
35307;BME280;21420;52.196;21.416;2022-09-27T04:58:24;98844.55;;;10.92;64.22
35307;BME280;21420;52.196;21.416;2022-09-27T05:00:51;98844.73;;;10.93;64.17
35307;BME280;21420;52.196;21.416;2022-09-27T05:03:32;98844.38;;;10.95;64.26
35307;BME280;21420;52.196;21.416;2022-09-27T05:06:00;98840.88;;;10.98;64.34
35307;BME280;21420;52.196;21.416;2022-09-27T05:08:27;98843.85;;;11.02;64.39
35307;BME280;21420;52.196;21.416;2022-09-27T05:10:56;98849.98;;;11.09;64.42
35307;BME280;21420;52.196;21.416;2022-09-27T05:13:22;98865.83;;;11.10;64.36
35307;BME280;21420;52.196;21.416;2022-09-27T05:15:48;98862.36;;;11.13;64.47
35307;BME280;21420;52.196;21.416;2022-09-27T05:18:26;98859.27;;;11.18;64.56
35307;BME280;21420;52.196;21.416;2022-09-27T05:21:10;98852.84;;;11.20;64.47
35307;BME280;21420;52.196;21.416;2022-09-27T05:23:39;98846.41;;;11.22;64.49
35307;BME280;21420;52.196;21.416;2022-09-27T05:26:06;98845.62;;;11.21;64.46
35307;BME280;21420;52.196;21.416;2022-09-27T05:28:33;98850.69;;;11.19;64.41
35307;BME280;21420;52.196;21.416;2022-09-27T05:31:00;98860.64;;;11.18;64.53
35307;BME280;21420;52.196;21.416;2022-09-27T05:33:27;98862.44;;;11.23;64.70
35307;BME280;21420;52.196;21.416;2022-09-27T05:35:56;98863.68;;;11.30;64.61
35307;BME280;21420;52.196;21.416;2022-09-27T05:38:24;98865.64;;;11.29;64.63
35307;BME280;21420;52.196;21.416;2022-09-27T05:40:53;98860.75;;;11.29;64.61
35307;BME280;21420;52.196;21.416;2022-09-27T05:43:19;98864.86;;;11.29;64.60
35307;BME280;21420;52.196;21.416;2022-09-27T05:45:46;98866.77;;;11.24;64.52
35307;BME280;21420;52.196;21.416;2022-09-27T05:48:15;98865.41;;;11.24;64.72
35307;BME280;21420;52.196;21.416;2022-09-27T05:50:45;98862.66;;;11.24;64.58
35307;BME280;21420;52.196;21.416;2022-09-27T05:53:12;98860.64;;;11.18;64.45
35307;BME280;21420;52.196;21.416;2022-09-27T05:55:39;98863.09;;;11.10;64.45
35307;BME280;21420;52.196;21.416;2022-09-27T05:58:07;98861.29;;;11.04;64.51
35307;BME280;21420;52.196;21.416;2022-09-27T06:00:39;98861.63;;;10.99;64.52
35307;BME280;21420;52.196;21.416;2022-09-27T06:03:08;98868.02;;;10.93;64.58
35307;BME280;21420;52.196;21.416;2022-09-27T06:05:41;98864.66;;;10.90;64.63
35307;BME280;21420;52.196;21.416;2022-09-27T06:08:19;98863.49;;;10.91;64.73
35307;BME280;21420;52.196;21.416;2022-09-27T06:10:47;98854.49;;;10.91;64.73
35307;BME280;21420;52.196;21.416;2022-09-27T06:13:15;98853.13;;;10.91;64.83
35307;BME280;21420;52.196;21.416;2022-09-27T06:15:44;98853.55;;;10.93;64.87
35307;BME280;21420;52.196;21.416;2022-09-27T06:18:14;98851.22;;;10.95;64.96
35307;BME280;21420;52.196;21.416;2022-09-27T06:20:45;98846.72;;;10.96;64.99
35307;BME280;21420;52.196;21.416;2022-09-27T06:23:14;98848.91;;;11.00;65.14
35307;BME280;21420;52.196;21.416;2022-09-27T06:25:44;98847.23;;;11.06;65.08
35307;BME280;21420;52.196;21.416;2022-09-27T06:28:22;98847.83;;;11.09;65.14
35307;BME280;21420;52.196;21.416;2022-09-27T06:30:50;98852.97;;;11.14;65.21
35307;BME280;21420;52.196;21.416;2022-09-27T06:33:31;98848.38;;;11.25;65.38
35307;BME280;21420;52.196;21.416;2022-09-27T06:36:04;98850.45;;;11.39;65.51
35307;BME280;21420;52.196;21.416;2022-09-27T06:38:33;98847.53;;;11.41;65.33
35307;BME280;21420;52.196;21.416;2022-09-27T06:41:08;98853.84;;;11.45;65.30
35307;BME280;21420;52.196;21.416;2022-09-27T06:43:53;98852.16;;;11.54;65.39
35307;BME280;21420;52.196;21.416;2022-09-27T06:46:37;98854.58;;;11.63;65.40
35307;BME280;21420;52.196;21.416;2022-09-27T06:49:10;98855.22;;;11.70;65.31
35307;BME280;21420;52.196;21.416;2022-09-27T06:51:38;98853.08;;;11.73;65.20
35307;BME280;21420;52.196;21.416;2022-09-27T06:54:04;98852.75;;;11.78;65.20
35307;BME280;21420;52.196;21.416;2022-09-27T06:56:31;98845.41;;;11.89;65.28
35307;BME280;21420;52.196;21.416;2022-09-27T06:58:57;98850.80;;;12.06;65.44
35307;BME280;21420;52.196;21.416;2022-09-27T07:01:43;98859.73;;;12.27;65.44
35307;BME280;21420;52.196;21.416;2022-09-27T07:04:25;98858.98;;;12.34;65.18
35307;BME280;21420;52.196;21.416;2022-09-27T07:06:57;98856.05;;;12.33;65.08
35307;BME280;21420;52.196;21.416;2022-09-27T07:09:25;98857.08;;;12.41;65.35
35307;BME280;21420;52.196;21.416;2022-09-27T07:11:52;98856.34;;;12.55;65.27
35307;BME280;21420;52.196;21.416;2022-09-27T07:14:20;98857.17;;;12.66;65.48
35307;BME280;21420;52.196;21.416;2022-09-27T07:16:47;98860.58;;;12.84;65.56
35307;BME280;21420;52.196;21.416;2022-09-27T07:19:13;98865.50;;;12.91;65.21
35307;BME280;21420;52.196;21.416;2022-09-27T07:21:40;98854.33;;;12.90;65.15
35307;BME280;21420;52.196;21.416;2022-09-27T07:24:07;98856.14;;;13.10;65.38
35307;BME280;21420;52.196;21.416;2022-09-27T07:26:33;98856.16;;;13.25;65.17
35307;BME280;21420;52.196;21.416;2022-09-27T07:28:59;98856.60;;;13.38;65.23
35307;BME280;21420;52.196;21.416;2022-09-27T07:31:27;98858.94;;;13.39;65.03
35307;BME280;21420;52.196;21.416;2022-09-27T07:33:56;98865.43;;;13.41;64.69
35307;BME280;21420;52.196;21.416;2022-09-27T07:36:22;98864.77;;;13.16;64.20
35307;BME280;21420;52.196;21.416;2022-09-27T07:38:49;98856.14;;;13.21;64.86
35307;BME280;21420;52.196;21.416;2022-09-27T07:41:17;98856.20;;;13.43;65.12
35307;BME280;21420;52.196;21.416;2022-09-27T07:43:44;98855.23;;;13.45;64.62
35307;BME280;21420;52.196;21.416;2022-09-27T07:46:11;98857.58;;;13.43;64.72
35307;BME280;21420;52.196;21.416;2022-09-27T07:48:55;98854.62;;;13.52;64.88
35307;BME280;21420;52.196;21.416;2022-09-27T07:51:29;98866.03;;;13.72;64.75
35307;BME280;21420;52.196;21.416;2022-09-27T07:54:00;98857.59;;;13.79;64.57
35307;BME280;21420;52.196;21.416;2022-09-27T07:56:30;98874.27;;;13.69;64.10
35307;BME280;21420;52.196;21.416;2022-09-27T07:58:57;98866.44;;;13.60;63.87
35307;BME280;21420;52.196;21.416;2022-09-27T08:01:24;98864.66;;;13.65;64.15
35307;BME280;21420;52.196;21.416;2022-09-27T08:03:51;98870.36;;;13.63;63.88
35307;BME280;21420;52.196;21.416;2022-09-27T08:06:18;98877.61;;;13.75;64.13
35307;BME280;21420;52.196;21.416;2022-09-27T08:08:45;98876.83;;;13.75;63.78
35307;BME280;21420;52.196;21.416;2022-09-27T08:11:14;98879.40;;;13.74;63.84
35307;BME280;21420;52.196;21.416;2022-09-27T08:13:43;98879.59;;;13.79;63.87
35307;BME280;21420;52.196;21.416;2022-09-27T08:16:11;98879.20;;;13.69;63.59
35307;BME280;21420;52.196;21.416;2022-09-27T08:18:52;98885.09;;;13.61;63.60
35307;BME280;21420;52.196;21.416;2022-09-27T08:21:23;98879.38;;;13.45;63.29
35307;BME280;21420;52.196;21.416;2022-09-27T08:23:51;98875.63;;;13.44;63.78
35307;BME280;21420;52.196;21.416;2022-09-27T08:26:23;98869.18;;;13.67;64.17
35307;BME280;21420;52.196;21.416;2022-09-27T08:29:09;98868.77;;;13.80;63.75
35307;BME280;21420;52.196;21.416;2022-09-27T08:31:39;98866.61;;;13.86;63.70
35307;BME280;21420;52.196;21.416;2022-09-27T08:34:06;98862.42;;;14.22;64.18
35307;BME280;21420;52.196;21.416;2022-09-27T08:36:33;98855.85;;;14.53;64.08
35307;BME280;21420;52.196;21.416;2022-09-27T08:39:02;98860.33;;;15.39;64.83
35307;BME280;21420;52.196;21.416;2022-09-27T08:41:36;98851.02;;;15.75;63.92
35307;BME280;21420;52.196;21.416;2022-09-27T08:47:18;98847.48;;;15.74;63.04
35307;BME280;21420;52.196;21.416;2022-09-27T08:58:50;98854.70;;;19.84;63.96
35307;BME280;21420;52.196;21.416;2022-09-27T09:01:11;98846.29;;;20.25;62.63
35307;BME280;21420;52.196;21.416;2022-09-27T09:03:47;98837.11;;;20.70;62.21
35307;BME280;21420;52.196;21.416;2022-09-27T09:06:26;98844.70;;;21.72;61.75
35307;BME280;21420;52.196;21.416;2022-09-27T09:29:19;98873.89;;;24.53;57.41
35307;BME280;21420;52.196;21.416;2022-09-27T09:32:08;98864.69;;;24.10;55.24
35307;BME280;21420;52.196;21.416;2022-09-27T09:34:57;98859.34;;;23.71;55.68
35307;BME280;21420;52.196;21.416;2022-09-27T09:37:37;98868.81;;;23.28;54.70
35307;BME280;21420;52.196;21.416;2022-09-27T09:45:46;98861.12;;;21.75;55.38
35307;BME280;21420;52.196;21.416;2022-09-27T09:48:36;98862.41;;;22.65;56.42
35307;BME280;21420;52.196;21.416;2022-09-27T09:51:11;98851.92;;;23.37;57.10
35307;BME280;21420;52.196;21.416;2022-09-27T09:54:06;98851.86;;;23.68;55.91
35307;BME280;21420;52.196;21.416;2022-09-27T09:56:38;98856.73;;;23.00;54.31
35307;BME280;21420;52.196;21.416;2022-09-27T09:59:19;98851.86;;;21.60;53.37
35307;BME280;21420;52.196;21.416;2022-09-27T10:01:53;98854.17;;;20.98;54.33
35307;BME280;21420;52.196;21.416;2022-09-27T10:04:25;98853.23;;;20.96;55.06
35307;BME280;21420;52.196;21.416;2022-09-27T10:06:56;98849.06;;;20.96;54.91
35307;BME280;21420;52.196;21.416;2022-09-27T10:09:25;98849.59;;;20.78;55.08
35307;BME280;21420;52.196;21.416;2022-09-27T10:11:55;98842.66;;;21.04;54.76
35307;BME280;21420;52.196;21.416;2022-09-27T10:14:25;98838.49;;;21.04;54.77
35307;BME280;21420;52.196;21.416;2022-09-27T10:16:54;98843.12;;;21.15;54.70
35307;BME280;21420;52.196;21.416;2022-09-27T10:19:28;98839.73;;;21.03;54.93
35307;BME280;21420;52.196;21.416;2022-09-27T10:22:09;98842.83;;;21.18;54.84
35307;BME280;21420;52.196;21.416;2022-09-27T10:24:51;98844.33;;;21.66;55.12
35307;BME280;21420;52.196;21.416;2022-09-27T10:27:11;98834.72;;;21.24;53.59
35307;BME280;21420;52.196;21.416;2022-09-27T10:29:38;98839.77;;;21.59;55.05
35307;BME280;21420;52.196;21.416;2022-09-27T10:32:18;98838.69;;;21.74;54.05
35307;BME280;21420;52.196;21.416;2022-09-27T10:34:49;98835.83;;;21.26;53.22
35307;BME280;21420;52.196;21.416;2022-09-27T10:37:19;98830.31;;;20.71;53.50
35307;BME280;21420;52.196;21.416;2022-09-27T10:39:50;98828.36;;;20.05;52.65
35307;BME280;21420;52.196;21.416;2022-09-27T10:42:30;98824.94;;;19.27;52.87
35307;BME280;21420;52.196;21.416;2022-09-27T10:44:50;98822.58;;;18.61;52.86
35307;BME280;21420;52.196;21.416;2022-09-27T10:47:21;98814.31;;;18.29;53.75
35307;BME280;21420;52.196;21.416;2022-09-27T10:50:02;98816.09;;;18.08;53.81
35307;BME280;21420;52.196;21.416;2022-09-27T10:55:41;98808.48;;;18.04;54.77
35307;BME280;21420;52.196;21.416;2022-09-27T10:58:33;98796.19;;;18.05;54.69
35307;BME280;21420;52.196;21.416;2022-09-27T11:01:00;98796.47;;;18.30;55.20
35307;BME280;21420;52.196;21.416;2022-09-27T11:03:35;98798.84;;;18.00;54.76
35307;BME280;21420;52.196;21.416;2022-09-27T11:08:54;98794.47;;;17.91;55.03
35307;BME280;21420;52.196;21.416;2022-09-27T11:11:26;98783.37;;;18.03;55.55
35307;BME280;21420;52.196;21.416;2022-09-27T11:14:05;98789.02;;;18.27;55.47
35307;BME280;21420;52.196;21.416;2022-09-27T11:23:00;98783.06;;;18.77;55.21
35307;BME280;21420;52.196;21.416;2022-09-27T11:48:26;98762.23;;;17.57;55.75
35307;BME280;21420;52.196;21.416;2022-09-27T11:56:56;98749.35;;;17.35;55.55
35307;BME280;21420;52.196;21.416;2022-09-27T12:06:10;98757.09;;;17.09;55.87
35307;BME280;21420;52.196;21.416;2022-09-27T12:11:23;98742.91;;;16.79;55.91
35307;BME280;21420;52.196;21.416;2022-09-27T12:16:36;98751.37;;;16.96;56.34
35307;BME280;21420;52.196;21.416;2022-09-27T12:19:04;98750.81;;;16.77;55.92
35307;BME280;21420;52.196;21.416;2022-09-27T12:21:39;98752.64;;;16.60;56.15
35307;BME280;21420;52.196;21.416;2022-09-27T12:24:14;98750.75;;;16.38;55.93
35307;BME280;21420;52.196;21.416;2022-09-27T12:26:52;98741.31;;;16.20;56.14
35307;BME280;21420;52.196;21.416;2022-09-27T12:29:29;98743.53;;;16.17;56.28
35307;BME280;21420;52.196;21.416;2022-09-27T12:35:16;98740.61;;;15.97;56.40
35307;BME280;21420;52.196;21.416;2022-09-27T12:38:10;98729.45;;;15.89;56.54
35307;BME280;21420;52.196;21.416;2022-09-27T12:40:48;98733.84;;;16.02;56.90
35307;BME280;21420;52.196;21.416;2022-09-27T12:43:25;98726.95;;;16.02;56.81
35307;BME280;21420;52.196;21.416;2022-09-27T12:51:29;98731.97;;;16.11;57.18
35307;BME280;21420;52.196;21.416;2022-09-27T12:57:05;98731.05;;;16.21;57.15
35307;BME280;21420;52.196;21.416;2022-09-27T13:09:18;98715.82;;;16.24;57.16
35307;BME280;21420;52.196;21.416;2022-09-27T13:14:53;98706.64;;;16.00;57.05
35307;BME280;21420;52.196;21.416;2022-09-27T13:26:02;98702.94;;;15.99;57.73
35307;BME280;21420;52.196;21.416;2022-09-27T13:34:51;98693.13;;;16.40;57.94
35307;BME280;21420;52.196;21.416;2022-09-27T13:43:19;98676.48;;;17.22;58.24
35307;BME280;21420;52.196;21.416;2022-09-27T13:46:06;98673.16;;;17.42;57.87
35307;BME280;21420;52.196;21.416;2022-09-27T13:48:53;98673.61;;;17.81;58.30
35307;BME280;21420;52.196;21.416;2022-09-27T13:51:45;98663.27;;;18.05;57.85
35307;BME280;21420;52.196;21.416;2022-09-27T14:00:13;98663.78;;;18.00;57.18
35307;BME280;21420;52.196;21.416;2022-09-27T14:06:00;98667.39;;;17.65;56.63
35307;BME280;21420;52.196;21.416;2022-09-27T14:08:44;98658.98;;;17.28;56.57
35307;BME280;21420;52.196;21.416;2022-09-27T14:11:22;98657.13;;;17.22;56.91
35307;BME280;21420;52.196;21.416;2022-09-27T14:13:55;98662.52;;;17.29;57.27
35307;BME280;21420;52.196;21.416;2022-09-27T14:16:25;98652.06;;;17.28;57.10
35307;BME280;21420;52.196;21.416;2022-09-27T14:18:58;98655.49;;;17.24;56.99
35307;BME280;21420;52.196;21.416;2022-09-27T14:21:35;98647.58;;;17.15;56.99
35307;BME280;21420;52.196;21.416;2022-09-27T14:24:29;98649.16;;;17.16;57.14
35307;BME280;21420;52.196;21.416;2022-09-27T14:27:22;98654.33;;;17.14;56.99
35307;BME280;21420;52.196;21.416;2022-09-27T14:29:55;98656.66;;;17.03;56.96
35307;BME280;21420;52.196;21.416;2022-09-27T14:32:31;98651.26;;;16.84;56.74
35307;BME280;21420;52.196;21.416;2022-09-27T14:35:18;98654.56;;;16.72;56.97
35307;BME280;21420;52.196;21.416;2022-09-27T14:38:06;98660.25;;;16.61;56.96
35307;BME280;21420;52.196;21.416;2022-09-27T14:43:24;98656.24;;;16.39;56.86
35307;BME280;21420;52.196;21.416;2022-09-27T14:45:57;98656.28;;;16.23;57.00
35307;BME280;21420;52.196;21.416;2022-09-27T14:48:28;98654.27;;;16.12;57.00
35307;BME280;21420;52.196;21.416;2022-09-27T14:51:03;98652.18;;;16.05;57.14
35307;BME280;21420;52.196;21.416;2022-09-27T14:53:42;98649.28;;;16.00;57.19
35307;BME280;21420;52.196;21.416;2022-09-27T14:59:14;98657.29;;;15.91;57.21
35307;BME280;21420;52.196;21.416;2022-09-27T15:01:49;98653.10;;;15.79;57.20
35307;BME280;21420;52.196;21.416;2022-09-27T15:04:16;98656.09;;;15.76;57.42
35307;BME280;21420;52.196;21.416;2022-09-27T15:06:45;98658.28;;;15.73;57.46
35307;BME280;21420;52.196;21.416;2022-09-27T15:09:13;98653.80;;;15.68;57.35
35307;BME280;21420;52.196;21.416;2022-09-27T15:11:42;98649.08;;;15.65;57.39
35307;BME280;21420;52.196;21.416;2022-09-27T15:14:16;98649.31;;;15.62;57.51
35307;BME280;21420;52.196;21.416;2022-09-27T15:16:47;98653.68;;;15.59;57.51
35307;BME280;21420;52.196;21.416;2022-09-27T15:19:21;98656.15;;;15.50;57.45
35307;BME280;21420;52.196;21.416;2022-09-27T15:21:49;98657.55;;;15.47;57.50
35307;BME280;21420;52.196;21.416;2022-09-27T15:24:36;98653.24;;;15.46;57.66
35307;BME280;21420;52.196;21.416;2022-09-27T15:27:15;98653.47;;;15.43;57.56
35307;BME280;21420;52.196;21.416;2022-09-27T15:29:52;98653.95;;;15.34;57.60
35307;BME280;21420;52.196;21.416;2022-09-27T15:32:18;98655.18;;;15.30;57.67
35307;BME280;21420;52.196;21.416;2022-09-27T15:34:51;98644.61;;;15.25;57.75
35307;BME280;21420;52.196;21.416;2022-09-27T15:37:32;98651.27;;;15.27;57.78
35307;BME280;21420;52.196;21.416;2022-09-27T15:39:56;98650.92;;;15.22;57.67
35307;BME280;21420;52.196;21.416;2022-09-27T15:42:26;98641.39;;;15.11;57.77
35307;BME280;21420;52.196;21.416;2022-09-27T15:44:53;98643.19;;;15.06;57.78
35307;BME280;21420;52.196;21.416;2022-09-27T15:52:53;98635.13;;;14.84;57.87
35307;BME280;21420;52.196;21.416;2022-09-27T15:55:26;98646.95;;;14.81;57.98
35307;BME280;21420;52.196;21.416;2022-09-27T16:00:31;98635.33;;;14.59;57.87
35307;BME280;21420;52.196;21.416;2022-09-27T16:02:57;98638.09;;;14.52;57.91
35307;BME280;21420;52.196;21.416;2022-09-27T16:05:24;98635.98;;;14.44;57.94
35307;BME280;21420;52.196;21.416;2022-09-27T16:07:52;98632.86;;;14.38;58.00
35307;BME280;21420;52.196;21.416;2022-09-27T16:10:37;98627.23;;;14.30;57.99
35307;BME280;21420;52.196;21.416;2022-09-27T16:13:04;98623.71;;;14.26;58.17
35307;BME280;21420;52.196;21.416;2022-09-27T16:15:31;98618.44;;;14.20;58.20
35307;BME280;21420;52.196;21.416;2022-09-27T16:17:57;98627.34;;;14.12;58.19
35307;BME280;21420;52.196;21.416;2022-09-27T16:20:25;98627.56;;;14.06;58.23
35307;BME280;21420;52.196;21.416;2022-09-27T16:23:25;98628.00;;;13.98;58.30
35307;BME280;21420;52.196;21.416;2022-09-27T16:25:56;98623.73;;;13.89;58.33
35307;BME280;21420;52.196;21.416;2022-09-27T16:28:22;98617.50;;;13.78;58.38
35307;BME280;21420;52.196;21.416;2022-09-27T16:30:50;98622.22;;;13.70;58.42
35307;BME280;21420;52.196;21.416;2022-09-27T16:33:17;98615.00;;;13.65;58.50
35307;BME280;21420;52.196;21.416;2022-09-27T16:35:43;98609.89;;;13.60;58.57
35307;BME280;21420;52.196;21.416;2022-09-27T16:38:09;98613.27;;;13.56;58.55
35307;BME280;21420;52.196;21.416;2022-09-27T16:40:36;98610.73;;;13.46;58.62
35307;BME280;21420;52.196;21.416;2022-09-27T16:43:03;98608.98;;;13.40;58.62